Aérodrome :
LOGIN :

S'inscrire | Disclaimer

   EN    FR    IT 

 










Légende :    VFR   VFR Marginal   IFR   IFR Intensif   IFR Très Intensif
Visi : 
Plafond : 
>= 8 km
>= 3000ft
5 à 8 km
1000 à 3000 ft
1500m à 5 km
500 à 1000 ft
800 à 1500m
200 à 500 ft
< 800m
< 200 ft
Symboles :   Orages  Brouillard  Fortes neiges  Fortes précipitations  Vent > 20 kt
SIGMETs :   Divers  Orages  Givrage  Turbulence  Onde Orograph.  Cendres Volcan.







- Altitude de l'aérodrome : 82 ft
- Code IATA : AAR


EKAH - Aarhus Tirstrup

DERNIER METAR :
  • 191350Z AUTO 27018G31KT 6000NDV -SHRA BKN024/// 07/04 Q1006

METARs EXPIRÉS :
  • 191320Z AUTO 26013KT 230V290 9999NDV FEW016/// SCT020/// 09/05 Q1005
  • 191250Z AUTO 26014KT 220V290 9999NDV -SHRA BKN021/// 08/05 Q1005
  • 191220Z AUTO 26014G26KT 9999NDV BKN025/// 08/04 Q1005
  • 191150Z AUTO 26012KT 220V280 9999NDV SCT021/// BKN024/// 09/05 Q1005
  • 191120Z AUTO 26016KT 9999NDV -SHRA BKN018/// 08/05 Q1005

TAF TAF EKAH
Valide du 19 à 12h jusqu'au 20 à 12h UTC


191059Z 1912/2012 27010KT 9999 BKN018
TEMPO 1912/1922 27015G25KT -SHRA BKN014TCU
Pas de NOTAMs connus pour ce terrain.



MET'MAP, la Météo Aéronautique d'un coup d'oeil ! - Copyright ORBIFLY Décembre 2007 - Disclaimer

ORBIFLY MET'MAP TEAM :

Programmation & Développement : Alexandra Zaïnal
Conception & Développement : Baudouin d'Aumeries
Co-Programmation & Développement : Marc-Olivier Méhu
Soutien technique & logistique : Manuel Goepfert

Contact : metmap@orbifly.com




SOURCES & CREDITS :

   NOAA